sensor_id;sensor_type;location;lat;lon;timestamp;pressure;altitude;pressure_sealevel;temperature;humidity
67109;BME280;54027;50.786;7.058;2023-06-14T00:02:05;100801.00;;;18.33;54.08
67109;BME280;54027;50.786;7.058;2023-06-14T00:04:34;100797.59;;;18.31;53.91
67109;BME280;54027;50.786;7.058;2023-06-14T00:06:59;100792.41;;;18.29;53.91
67109;BME280;54027;50.786;7.058;2023-06-14T00:09:25;100792.53;;;18.26;53.81
67109;BME280;54027;50.786;7.058;2023-06-14T00:11:50;100800.44;;;18.25;54.04
67109;BME280;54027;50.786;7.058;2023-06-14T00:14:16;100801.53;;;18.19;54.39
67109;BME280;54027;50.786;7.058;2023-06-14T00:16:41;100798.19;;;18.16;54.12
67109;BME280;54027;50.786;7.058;2023-06-14T00:19:08;100799.31;;;18.09;54.08
67109;BME280;54027;50.786;7.058;2023-06-14T00:21:35;100805.59;;;18.05;54.17
67109;BME280;54027;50.786;7.058;2023-06-14T00:24:01;100807.47;;;18.01;54.39
67109;BME280;54027;50.786;7.058;2023-06-14T00:26:27;100812.81;;;17.98;54.34
67109;BME280;54027;50.786;7.058;2023-06-14T00:28:53;100807.72;;;17.95;54.06
67109;BME280;54027;50.786;7.058;2023-06-14T00:31:19;100818.28;;;17.92;54.31
67109;BME280;54027;50.786;7.058;2023-06-14T00:33:44;100816.69;;;17.88;54.04
67109;BME280;54027;50.786;7.058;2023-06-14T00:36:10;100818.59;;;17.83;54.56
67109;BME280;54027;50.786;7.058;2023-06-14T00:38:35;100829.16;;;17.80;54.96
67109;BME280;54027;50.786;7.058;2023-06-14T00:41:01;100821.47;;;17.75;54.83
67109;BME280;54027;50.786;7.058;2023-06-14T00:43:26;100830.38;;;17.71;55.20
67109;BME280;54027;50.786;7.058;2023-06-14T00:45:52;100835.75;;;17.67;55.18
67109;BME280;54027;50.786;7.058;2023-06-14T00:48:17;100840.28;;;17.62;55.24
67109;BME280;54027;50.786;7.058;2023-06-14T00:50:44;100837.84;;;17.57;55.50
67109;BME280;54027;50.786;7.058;2023-06-14T00:53:14;100845.91;;;17.51;55.50
67109;BME280;54027;50.786;7.058;2023-06-14T00:55:40;100841.63;;;17.49;55.52
67109;BME280;54027;50.786;7.058;2023-06-14T00:58:06;100845.19;;;17.46;55.68
67109;BME280;54027;50.786;7.058;2023-06-14T01:00:31;100852.28;;;17.42;55.66
67109;BME280;54027;50.786;7.058;2023-06-14T01:02:56;100852.28;;;17.42;56.22
67109;BME280;54027;50.786;7.058;2023-06-14T01:05:23;100848.97;;;17.39;56.51
67109;BME280;54027;50.786;7.058;2023-06-14T01:08:15;100850.84;;;17.34;56.82
67109;BME280;54027;50.786;7.058;2023-06-14T01:11:02;100857.13;;;17.30;56.82
67109;BME280;54027;50.786;7.058;2023-06-14T01:13:34;100859.88;;;17.25;57.13
67109;BME280;54027;50.786;7.058;2023-06-14T01:16:00;100857.44;;;17.21;57.51
67109;BME280;54027;50.786;7.058;2023-06-14T01:18:28;100862.78;;;17.16;58.24
67109;BME280;54027;50.786;7.058;2023-06-14T01:20:55;100861.22;;;17.12;58.23
67109;BME280;54027;50.786;7.058;2023-06-14T01:23:22;100860.44;;;17.09;58.16
67109;BME280;54027;50.786;7.058;2023-06-14T01:25:49;100854.47;;;17.05;57.74
67109;BME280;54027;50.786;7.058;2023-06-14T01:28:19;100852.84;;;17.01;58.03
67109;BME280;54027;50.786;7.058;2023-06-14T01:30:52;100856.41;;;16.99;57.87
67109;BME280;54027;50.786;7.058;2023-06-14T01:33:19;100855.66;;;16.95;58.40
67109;BME280;54027;50.786;7.058;2023-06-14T01:35:47;100861.06;;;16.91;58.27
67109;BME280;54027;50.786;7.058;2023-06-14T01:38:14;100871.59;;;16.88;58.85
67109;BME280;54027;50.786;7.058;2023-06-14T01:40:42;100874.41;;;16.81;59.23
67109;BME280;54027;50.786;7.058;2023-06-14T01:43:10;100869.28;;;16.78;59.25
67109;BME280;54027;50.786;7.058;2023-06-14T01:45:37;100866.72;;;16.77;59.24
67109;BME280;54027;50.786;7.058;2023-06-14T01:48:04;100867.56;;;16.77;59.01
67109;BME280;54027;50.786;7.058;2023-06-14T01:50:30;100858.91;;;16.75;59.49
67109;BME280;54027;50.786;7.058;2023-06-14T01:52:56;100868.47;;;16.75;59.33
67109;BME280;54027;50.786;7.058;2023-06-14T01:55:21;100867.69;;;16.73;59.88
67109;BME280;54027;50.786;7.058;2023-06-14T01:57:47;100874.75;;;16.69;59.78
67109;BME280;54027;50.786;7.058;2023-06-14T02:00:14;100867.03;;;16.66;59.81
67109;BME280;54027;50.786;7.058;2023-06-14T02:02:40;100865.38;;;16.64;59.73
67109;BME280;54027;50.786;7.058;2023-06-14T02:05:05;100866.34;;;16.60;59.99
67109;BME280;54027;50.786;7.058;2023-06-14T02:07:31;100870.81;;;16.56;59.99
67109;BME280;54027;50.786;7.058;2023-06-14T02:09:56;100873.66;;;16.50;60.61
67109;BME280;54027;50.786;7.058;2023-06-14T02:12:22;100872.00;;;16.46;61.19
67109;BME280;54027;50.786;7.058;2023-06-14T02:14:47;100869.53;;;16.42;61.04
67109;BME280;54027;50.786;7.058;2023-06-14T02:17:13;100869.53;;;16.42;61.04
67109;BME280;54027;50.786;7.058;2023-06-14T02:19:39;100872.19;;;16.40;61.47
67109;BME280;54027;50.786;7.058;2023-06-14T02:22:04;100868.81;;;16.37;61.24
67109;BME280;54027;50.786;7.058;2023-06-14T02:24:30;100884.66;;;16.30;61.93
67109;BME280;54027;50.786;7.058;2023-06-14T02:26:55;100882.22;;;16.26;61.80
67109;BME280;54027;50.786;7.058;2023-06-14T02:29:20;100880.63;;;16.20;61.88
67109;BME280;54027;50.786;7.058;2023-06-14T02:31:46;100881.63;;;16.16;62.22
67109;BME280;54027;50.786;7.058;2023-06-14T02:34:13;100873.09;;;16.11;62.29
67109;BME280;54027;50.786;7.058;2023-06-14T02:36:39;100877.44;;;16.11;62.59
67109;BME280;54027;50.786;7.058;2023-06-14T02:39:07;100880.13;;;16.08;62.65
67109;BME280;54027;50.786;7.058;2023-06-14T02:41:34;100875.00;;;16.05;63.19
67109;BME280;54027;50.786;7.058;2023-06-14T02:44:00;100879.44;;;16.01;62.63
67109;BME280;54027;50.786;7.058;2023-06-14T02:46:25;100883.91;;;15.98;62.98
67109;BME280;54027;50.786;7.058;2023-06-14T02:48:50;100883.13;;;15.94;63.50
67109;BME280;54027;50.786;7.058;2023-06-14T02:51:16;100884.06;;;15.92;63.46
67109;BME280;54027;50.786;7.058;2023-06-14T02:53:41;100879.78;;;15.89;63.29
67109;BME280;54027;50.786;7.058;2023-06-14T02:56:06;100888.50;;;15.88;63.91
67109;BME280;54027;50.786;7.058;2023-06-14T02:58:32;100897.25;;;15.87;63.82
67109;BME280;54027;50.786;7.058;2023-06-14T03:00:58;100894.72;;;15.84;64.29
67109;BME280;54027;50.786;7.058;2023-06-14T03:03:29;100887.00;;;15.80;64.57
67109;BME280;54027;50.786;7.058;2023-06-14T03:05:54;100895.75;;;15.79;64.25
67109;BME280;54027;50.786;7.058;2023-06-14T03:08:20;100890.56;;;15.77;64.71
67109;BME280;54027;50.786;7.058;2023-06-14T03:10:46;100893.22;;;15.75;64.27
67109;BME280;54027;50.786;7.058;2023-06-14T03:13:15;100896.72;;;15.74;64.38
67109;BME280;54027;50.786;7.058;2023-06-14T03:15:47;100891.44;;;15.78;64.33
67109;BME280;54027;50.786;7.058;2023-06-14T03:18:18;100892.28;;;15.78;63.99
67109;BME280;54027;50.786;7.058;2023-06-14T03:20:44;100891.50;;;15.74;64.14
67109;BME280;54027;50.786;7.058;2023-06-14T03:23:11;100893.31;;;15.72;63.95
67109;BME280;54027;50.786;7.058;2023-06-14T03:25:36;100894.16;;;15.73;64.10
67109;BME280;54027;50.786;7.058;2023-06-14T03:28:04;100897.59;;;15.73;64.41
67109;BME280;54027;50.786;7.058;2023-06-14T03:30:30;100908.03;;;15.73;64.45
67109;BME280;54027;50.786;7.058;2023-06-14T03:32:56;100909.84;;;15.71;64.60
67109;BME280;54027;50.786;7.058;2023-06-14T03:35:23;100902.78;;;15.75;63.92
67109;BME280;54027;50.786;7.058;2023-06-14T03:37:49;100894.13;;;15.74;63.96
67109;BME280;54027;50.786;7.058;2023-06-14T03:40:16;100894.09;;;15.76;63.85
67109;BME280;54027;50.786;7.058;2023-06-14T03:42:41;100893.16;;;15.79;63.36
67109;BME280;54027;50.786;7.058;2023-06-14T03:45:07;100893.06;;;15.82;63.29
67109;BME280;54027;50.786;7.058;2023-06-14T03:47:33;100891.25;;;15.84;62.91
67109;BME280;54027;50.786;7.058;2023-06-14T03:49:59;100881.63;;;15.86;62.66
67109;BME280;54027;50.786;7.058;2023-06-14T03:52:26;100884.13;;;15.90;62.61
67109;BME280;54027;50.786;7.058;2023-06-14T03:54:52;100880.59;;;15.91;62.43
67109;BME280;54027;50.786;7.058;2023-06-14T03:57:18;100884.91;;;15.94;62.64
67109;BME280;54027;50.786;7.058;2023-06-14T03:59:44;100883.88;;;15.99;62.56
67109;BME280;54027;50.786;7.058;2023-06-14T04:02:09;100894.28;;;15.99;62.38
67109;BME280;54027;50.786;7.058;2023-06-14T04:04:35;100889.03;;;16.01;62.22
67109;BME280;54027;50.786;7.058;2023-06-14T04:07:02;100894.94;;;16.06;62.60
67109;BME280;54027;50.786;7.058;2023-06-14T04:09:28;100897.53;;;16.07;62.55
67109;BME280;54027;50.786;7.058;2023-06-14T04:11:54;100897.44;;;16.10;62.55
67109;BME280;54027;50.786;7.058;2023-06-14T04:14:20;100906.16;;;16.09;62.70
67109;BME280;54027;50.786;7.058;2023-06-14T04:16:47;100909.72;;;16.07;62.73
67109;BME280;54027;50.786;7.058;2023-06-14T04:19:12;100934.91;;;16.08;63.71
67109;BME280;54027;50.786;7.058;2023-06-14T04:21:38;100945.31;;;16.08;64.15
67109;BME280;54027;50.786;7.058;2023-06-14T04:24:03;100947.88;;;16.09;64.49
67109;BME280;54027;50.786;7.058;2023-06-14T04:26:29;100944.22;;;16.15;64.48
67109;BME280;54027;50.786;7.058;2023-06-14T04:28:55;100951.06;;;16.20;64.29
67109;BME280;54027;50.786;7.058;2023-06-14T04:31:23;100949.94;;;16.29;64.25
67109;BME280;54027;50.786;7.058;2023-06-14T04:33:50;100943.53;;;16.39;64.25
67109;BME280;54027;50.786;7.058;2023-06-14T04:36:18;100931.88;;;16.51;63.78
67109;BME280;54027;50.786;7.058;2023-06-14T04:38:44;100928.09;;;16.61;63.07
67109;BME280;54027;50.786;7.058;2023-06-14T04:41:11;100912.97;;;16.72;62.04
67109;BME280;54027;50.786;7.058;2023-06-14T04:43:37;100914.44;;;16.82;61.70
67109;BME280;54027;50.786;7.058;2023-06-14T04:46:04;100921.03;;;16.92;62.07
67109;BME280;54027;50.786;7.058;2023-06-14T04:48:31;100910.41;;;16.98;60.70
67109;BME280;54027;50.786;7.058;2023-06-14T04:50:56;100901.53;;;17.04;60.29
67109;BME280;54027;50.786;7.058;2023-06-14T04:53:22;100885.59;;;17.11;59.89
67109;BME280;54027;50.786;7.058;2023-06-14T04:55:48;100889.72;;;17.18;59.33
67109;BME280;54027;50.786;7.058;2023-06-14T04:58:14;100897.19;;;17.29;59.91
67109;BME280;54027;50.786;7.058;2023-06-14T05:00:39;100911.66;;;17.39;60.29
67109;BME280;54027;50.786;7.058;2023-06-14T05:03:04;100920.00;;;17.50;60.72
67109;BME280;54027;50.786;7.058;2023-06-14T05:05:31;100897.13;;;17.57;59.59
67109;BME280;54027;50.786;7.058;2023-06-14T05:07:57;100902.13;;;17.63;59.70
67109;BME280;54027;50.786;7.058;2023-06-14T05:10:24;100894.78;;;17.72;59.01
67109;BME280;54027;50.786;7.058;2023-06-14T05:12:49;100895.44;;;17.79;58.46
67109;BME280;54027;50.786;7.058;2023-06-14T05:15:15;100869.97;;;17.85;57.00
67109;BME280;54027;50.786;7.058;2023-06-14T05:17:41;100874.06;;;17.92;57.03
67109;BME280;54027;50.786;7.058;2023-06-14T05:20:07;100855.69;;;17.94;54.71
67109;BME280;54027;50.786;7.058;2023-06-14T05:22:33;100855.41;;;18.02;54.96
67109;BME280;54027;50.786;7.058;2023-06-14T05:24:58;100852.69;;;18.05;54.35
67109;BME280;54027;50.786;7.058;2023-06-14T05:27:23;100843.78;;;18.09;53.38
67109;BME280;54027;50.786;7.058;2023-06-14T05:29:50;100858.41;;;18.14;53.46
67109;BME280;54027;50.786;7.058;2023-06-14T05:32:15;100858.28;;;18.17;53.58
67109;BME280;54027;50.786;7.058;2023-06-14T05:34:41;100850.94;;;18.27;53.10
67109;BME280;54027;50.786;7.058;2023-06-14T05:37:07;100850.91;;;18.28;52.44
67109;BME280;54027;50.786;7.058;2023-06-14T05:39:32;100849.13;;;18.29;51.96
67109;BME280;54027;50.786;7.058;2023-06-14T05:41:57;100859.59;;;18.29;52.07
67109;BME280;54027;50.786;7.058;2023-06-14T05:44:23;100853.44;;;18.30;51.82
67109;BME280;54027;50.786;7.058;2023-06-14T05:46:48;100858.53;;;18.34;52.01
67109;BME280;54027;50.786;7.058;2023-06-14T05:49:13;100862.66;;;18.40;51.80
67109;BME280;54027;50.786;7.058;2023-06-14T05:51:39;100870.19;;;18.47;52.20
67109;BME280;54027;50.786;7.058;2023-06-14T05:54:04;100865.47;;;18.57;51.77
67109;BME280;54027;50.786;7.058;2023-06-14T05:56:30;100872.13;;;18.64;51.74
67109;BME280;54027;50.786;7.058;2023-06-14T05:58:55;100867.47;;;18.72;51.18
67109;BME280;54027;50.786;7.058;2023-06-14T06:01:20;100870.59;;;18.82;50.97
67109;BME280;54027;50.786;7.058;2023-06-14T06:03:46;100860.59;;;18.91;50.10
67109;BME280;54027;50.786;7.058;2023-06-14T06:06:12;100861.28;;;18.96;49.90
67109;BME280;54027;50.786;7.058;2023-06-14T06:08:37;100865.31;;;19.03;49.71
67109;BME280;54027;50.786;7.058;2023-06-14T06:11:03;100868.50;;;19.12;49.49
67109;BME280;54027;50.786;7.058;2023-06-14T06:13:29;100875.00;;;19.23;49.56
67109;BME280;54027;50.786;7.058;2023-06-14T06:15:54;100870.16;;;19.34;49.52
67109;BME280;54027;50.786;7.058;2023-06-14T06:18:19;100869.16;;;19.37;49.53
67109;BME280;54027;50.786;7.058;2023-06-14T06:20:44;100853.63;;;19.52;48.33
67109;BME280;54027;50.786;7.058;2023-06-14T06:23:10;100846.72;;;19.70;46.80
67109;BME280;54027;50.786;7.058;2023-06-14T06:25:35;100845.72;;;19.73;45.94
67109;BME280;54027;50.786;7.058;2023-06-14T06:28:01;100860.88;;;19.86;46.56
67109;BME280;54027;50.786;7.058;2023-06-14T06:30:26;100855.34;;;19.92;45.51
67109;BME280;54027;50.786;7.058;2023-06-14T06:32:51;100864.41;;;20.04;45.96
67109;BME280;54027;50.786;7.058;2023-06-14T06:35:18;100841.94;;;20.17;44.78
67109;BME280;54027;50.786;7.058;2023-06-14T06:37:43;100848.78;;;20.21;45.25
67109;BME280;54027;50.786;7.058;2023-06-14T06:40:09;100856.38;;;20.27;44.28
67109;BME280;54027;50.786;7.058;2023-06-14T06:42:35;100854.13;;;20.37;44.18
67109;BME280;54027;50.786;7.058;2023-06-14T06:45:01;100865.28;;;20.42;44.25
67109;BME280;54027;50.786;7.058;2023-06-14T06:47:26;100875.72;;;20.43;44.22
67109;BME280;54027;50.786;7.058;2023-06-14T06:49:52;100877.75;;;20.55;43.74
67109;BME280;54027;50.786;7.058;2023-06-14T06:52:18;100878.38;;;20.60;43.69
67109;BME280;54027;50.786;7.058;2023-06-14T06:54:43;100878.94;;;20.67;43.65
67109;BME280;54027;50.786;7.058;2023-06-14T06:57:08;100891.06;;;20.71;44.06
67109;BME280;54027;50.786;7.058;2023-06-14T06:59:34;100887.31;;;20.75;43.61
67109;BME280;54027;50.786;7.058;2023-06-14T07:02:00;100887.03;;;20.81;43.80
67109;BME280;54027;50.786;7.058;2023-06-14T07:04:25;100885.13;;;20.85;43.35
67109;BME280;54027;50.786;7.058;2023-06-14T07:06:50;100899.66;;;20.92;44.15
67109;BME280;54027;50.786;7.058;2023-06-14T07:09:16;100888.84;;;20.98;43.65
67109;BME280;54027;50.786;7.058;2023-06-14T07:11:43;100883.91;;;21.09;43.83
67109;BME280;54027;50.786;7.058;2023-06-14T07:14:09;100887.41;;;21.09;43.65
67109;BME280;54027;50.786;7.058;2023-06-14T07:16:34;100883.47;;;21.18;43.75
67109;BME280;54027;50.786;7.058;2023-06-14T07:19:02;100892.75;;;21.25;44.08
67109;BME280;54027;50.786;7.058;2023-06-14T07:21:27;100887.09;;;21.33;43.24
67109;BME280;54027;50.786;7.058;2023-06-14T07:23:53;100876.34;;;21.37;43.01
67109;BME280;54027;50.786;7.058;2023-06-14T07:26:19;100888.19;;;21.46;43.13
67109;BME280;54027;50.786;7.058;2023-06-14T07:28:46;100878.09;;;21.54;42.15
67109;BME280;54027;50.786;7.058;2023-06-14T07:31:12;100886.78;;;21.56;42.43
67109;BME280;54027;50.786;7.058;2023-06-14T07:33:38;100887.78;;;21.53;42.30
67109;BME280;54027;50.786;7.058;2023-06-14T07:36:03;100890.06;;;21.61;41.78
67109;BME280;54027;50.786;7.058;2023-06-14T07:38:29;100881.06;;;21.65;41.66
67109;BME280;54027;50.786;7.058;2023-06-14T07:40:54;100880.19;;;21.64;41.47
67109;BME280;54027;50.786;7.058;2023-06-14T07:43:19;100882.31;;;21.58;41.26
67109;BME280;54027;50.786;7.058;2023-06-14T07:45:45;100890.72;;;21.64;42.07
67109;BME280;54027;50.786;7.058;2023-06-14T07:48:11;100892.53;;;21.64;42.32
67109;BME280;54027;50.786;7.058;2023-06-14T07:50:36;100883.47;;;21.69;41.90
67109;BME280;54027;50.786;7.058;2023-06-14T07:53:01;100878.97;;;21.71;41.64
67109;BME280;54027;50.786;7.058;2023-06-14T07:55:27;100889.41;;;21.73;41.63
67109;BME280;54027;50.786;7.058;2023-06-14T07:57:53;100885.34;;;21.83;41.99
67109;BME280;54027;50.786;7.058;2023-06-14T08:00:19;100887.78;;;22.03;41.59
67109;BME280;54027;50.786;7.058;2023-06-14T08:02:45;100866.28;;;21.95;39.87
67109;BME280;54027;50.786;7.058;2023-06-14T08:05:11;100888.09;;;21.97;41.24
67109;BME280;54027;50.786;7.058;2023-06-14T08:07:37;100867.84;;;21.99;40.45
67109;BME280;54027;50.786;7.058;2023-06-14T08:10:04;100881.59;;;22.04;40.96
67109;BME280;54027;50.786;7.058;2023-06-14T08:12:29;100861.97;;;22.10;39.06
67109;BME280;54027;50.786;7.058;2023-06-14T08:14:54;100851.38;;;22.27;38.46
67109;BME280;54027;50.786;7.058;2023-06-14T08:17:20;100853.50;;;22.36;38.19
67109;BME280;54027;50.786;7.058;2023-06-14T08:19:45;100872.66;;;22.55;39.69
67109;BME280;54027;50.786;7.058;2023-06-14T08:22:10;100858.63;;;22.70;37.79
67109;BME280;54027;50.786;7.058;2023-06-14T08:24:37;100856.84;;;22.71;36.54
67109;BME280;54027;50.786;7.058;2023-06-14T08:27:03;100864.38;;;22.77;37.52
67109;BME280;54027;50.786;7.058;2023-06-14T08:29:28;100847.09;;;22.87;35.73
67109;BME280;54027;50.786;7.058;2023-06-14T08:31:56;100863.00;;;22.85;36.31
67109;BME280;54027;50.786;7.058;2023-06-14T08:34:21;100854.47;;;22.96;35.23
67109;BME280;54027;50.786;7.058;2023-06-14T08:36:49;100848.31;;;22.81;34.49
67109;BME280;54027;50.786;7.058;2023-06-14T08:39:15;100862.50;;;22.79;35.42
67109;BME280;54027;50.786;7.058;2023-06-14T08:41:43;100848.63;;;22.91;34.41
67109;BME280;54027;50.786;7.058;2023-06-14T08:44:11;100846.00;;;22.91;33.57
67109;BME280;54027;50.786;7.058;2023-06-14T08:46:36;100841.47;;;22.93;33.01
67109;BME280;54027;50.786;7.058;2023-06-14T08:49:03;100859.97;;;23.07;34.07
67109;BME280;54027;50.786;7.058;2023-06-14T08:51:31;100863.44;;;23.23;34.38
67109;BME280;54027;50.786;7.058;2023-06-14T08:54:01;100862.84;;;23.48;34.41
67109;BME280;54027;50.786;7.058;2023-06-14T08:56:29;100842.97;;;23.57;33.10
67109;BME280;54027;50.786;7.058;2023-06-14T08:58:56;100843.34;;;23.65;32.27
67109;BME280;54027;50.786;7.058;2023-06-14T09:01:23;100849.53;;;23.64;32.55
67109;BME280;54027;50.786;7.058;2023-06-14T09:03:50;100853.22;;;23.61;32.41
67109;BME280;54027;50.786;7.058;2023-06-14T09:06:16;100860.31;;;23.75;32.80
67109;BME280;54027;50.786;7.058;2023-06-14T09:08:46;100831.56;;;23.70;31.78
67109;BME280;54027;50.786;7.058;2023-06-14T09:11:14;100842.59;;;23.63;31.43
67109;BME280;54027;50.786;7.058;2023-06-14T09:13:41;100852.09;;;23.51;31.94
67109;BME280;54027;50.786;7.058;2023-06-14T09:16:07;100846.16;;;23.62;31.99
67109;BME280;54027;50.786;7.058;2023-06-14T09:21:07;100857.09;;;23.84;31.79
67109;BME280;54027;50.786;7.058;2023-06-14T09:23:42;100854.91;;;23.90;32.33
67109;BME280;54027;50.786;7.058;2023-06-14T09:26:09;100862.38;;;23.70;31.69
67109;BME280;54027;50.786;7.058;2023-06-14T09:28:35;100868.03;;;23.64;32.17
67109;BME280;54027;50.786;7.058;2023-06-14T09:31:01;100869.72;;;23.51;32.45
67109;BME280;54027;50.786;7.058;2023-06-14T09:33:26;100889.72;;;23.69;34.64
67109;BME280;54027;50.786;7.058;2023-06-14T09:35:54;100870.88;;;23.75;32.36
67109;BME280;54027;50.786;7.058;2023-06-14T09:38:19;100875.69;;;23.82;31.93
67109;BME280;54027;50.786;7.058;2023-06-14T09:40:45;100863.34;;;23.69;31.99
67109;BME280;54027;50.786;7.058;2023-06-14T09:43:11;100872.38;;;23.79;32.66
67109;BME280;54027;50.786;7.058;2023-06-14T09:45:38;100864.88;;;24.01;32.05
67109;BME280;54027;50.786;7.058;2023-06-14T09:48:06;100860.50;;;24.14;32.02
67109;BME280;54027;50.786;7.058;2023-06-14T09:50:32;100893.09;;;24.41;33.42
67109;BME280;54027;50.786;7.058;2023-06-14T09:53:10;100864.44;;;24.62;32.12
67109;BME280;54027;50.786;7.058;2023-06-14T09:55:36;100864.34;;;24.78;31.79
67109;BME280;54027;50.786;7.058;2023-06-14T09:58:05;100839.59;;;24.65;30.90
67109;BME280;54027;50.786;7.058;2023-06-14T10:00:31;100853.47;;;24.41;31.18
67109;BME280;54027;50.786;7.058;2023-06-14T10:03:03;100858.69;;;24.29;31.41
67109;BME280;54027;50.786;7.058;2023-06-14T10:05:29;100861.31;;;24.29;32.06
67109;BME280;54027;50.786;7.058;2023-06-14T10:08:04;100868.84;;;24.49;32.98
67109;BME280;54027;50.786;7.058;2023-06-14T10:10:30;100865.19;;;24.78;31.76
67109;BME280;54027;50.786;7.058;2023-06-14T10:12:56;100866.25;;;24.88;32.12
67109;BME280;54027;50.786;7.058;2023-06-14T10:18:22;100852.06;;;25.16;31.23
67109;BME280;54027;50.786;7.058;2023-06-14T10:20:58;100842.13;;;25.20;31.00
67109;BME280;54027;50.786;7.058;2023-06-14T10:23:33;100851.31;;;25.14;30.59
67109;BME280;54027;50.786;7.058;2023-06-14T10:26:00;100855.59;;;25.29;31.05
67109;BME280;54027;50.786;7.058;2023-06-14T10:28:26;100850.91;;;25.20;30.22
67109;BME280;54027;50.786;7.058;2023-06-14T10:31:11;100843.38;;;25.14;30.89
67109;BME280;54027;50.786;7.058;2023-06-14T10:33:57;100841.22;;;25.46;30.08
67109;BME280;54027;50.786;7.058;2023-06-14T10:36:29;100842.56;;;25.39;30.36
67109;BME280;54027;50.786;7.058;2023-06-14T10:41:55;100841.59;;;25.27;29.81
67109;BME280;54027;50.786;7.058;2023-06-14T10:46:52;100873.34;;;24.88;31.04
67109;BME280;54027;50.786;7.058;2023-06-14T10:49:19;100862.50;;;24.51;31.54
67109;BME280;54027;50.786;7.058;2023-06-14T10:51:46;100869.19;;;24.16;31.48
67109;BME280;54027;50.786;7.058;2023-06-14T10:54:15;100856.56;;;24.48;31.18
67109;BME280;54027;50.786;7.058;2023-06-14T10:56:47;100846.81;;;24.89;30.23
67109;BME280;54027;50.786;7.058;2023-06-14T10:59:13;100843.38;;;25.14;30.37
67109;BME280;54027;50.786;7.058;2023-06-14T11:04:20;100841.63;;;25.40;30.28
67109;BME280;54027;50.786;7.058;2023-06-14T11:06:50;100858.28;;;25.67;31.88
67109;BME280;54027;50.786;7.058;2023-06-14T11:11:48;100832.94;;;26.37;29.24
67109;BME280;54027;50.786;7.058;2023-06-14T11:14:15;100826.13;;;26.09;29.52
67109;BME280;54027;50.786;7.058;2023-06-14T11:16:41;100835.06;;;25.45;30.01
67109;BME280;54027;50.786;7.058;2023-06-14T11:19:07;100859.91;;;25.30;31.12
67109;BME280;54027;50.786;7.058;2023-06-14T11:21:33;100861.25;;;25.50;32.10
67109;BME280;54027;50.786;7.058;2023-06-14T11:23:58;100856.47;;;25.42;31.67
67109;BME280;54027;50.786;7.058;2023-06-14T11:26:28;100843.63;;;25.74;31.01
67109;BME280;54027;50.786;7.058;2023-06-14T11:28:58;100854.09;;;25.38;30.58
67109;BME280;54027;50.786;7.058;2023-06-14T11:31:25;100861.44;;;25.85;31.62
67109;BME280;54027;50.786;7.058;2023-06-14T11:33:53;100846.41;;;25.73;30.70
67109;BME280;54027;50.786;7.058;2023-06-14T11:36:19;100843.31;;;25.53;30.83
67109;BME280;54027;50.786;7.058;2023-06-14T11:38:44;100865.94;;;25.20;32.49
67109;BME280;54027;50.786;7.058;2023-06-14T11:41:10;100869.91;;;25.00;32.72
67109;BME280;54027;50.786;7.058;2023-06-14T11:43:35;100850.63;;;25.75;31.26
67109;BME280;54027;50.786;7.058;2023-06-14T11:46:01;100846.59;;;26.44;30.96
67109;BME280;54027;50.786;7.058;2023-06-14T11:48:43;100848.16;;;26.83;30.73
67109;BME280;54027;50.786;7.058;2023-06-14T11:51:08;100838.38;;;27.18;30.09
67109;BME280;54027;50.786;7.058;2023-06-14T11:53:34;100829.94;;;27.13;29.64
67109;BME280;54027;50.786;7.058;2023-06-14T11:56:01;100838.28;;;26.72;30.02
67109;BME280;54027;50.786;7.058;2023-06-14T11:58:26;100851.97;;;26.18;31.13
67109;BME280;54027;50.786;7.058;2023-06-14T12:00:54;100865.16;;;25.82;32.61
67109;BME280;54027;50.786;7.058;2023-06-14T12:03:24;100873.84;;;25.72;32.91
67109;BME280;54027;50.786;7.058;2023-06-14T12:06:05;100853.66;;;26.07;31.15
67109;BME280;54027;50.786;7.058;2023-06-14T12:08:35;100839.16;;;26.72;30.81
67109;BME280;54027;50.786;7.058;2023-06-14T12:11:11;100830.72;;;26.91;29.24
67109;BME280;54027;50.786;7.058;2023-06-14T12:13:38;100837.66;;;27.16;28.63
67109;BME280;54027;50.786;7.058;2023-06-14T12:16:10;100816.53;;;27.71;27.05
67109;BME280;54027;50.786;7.058;2023-06-14T12:18:37;100830.28;;;27.08;27.50
67109;BME280;54027;50.786;7.058;2023-06-14T12:21:04;100848.31;;;27.38;27.92
67109;BME280;54027;50.786;7.058;2023-06-14T12:23:48;100832.22;;;27.63;27.55
67109;BME280;54027;50.786;7.058;2023-06-14T12:26:18;100842.72;;;28.31;28.77
67109;BME280;54027;50.786;7.058;2023-06-14T12:28:45;100822.81;;;28.26;25.35
67109;BME280;54027;50.786;7.058;2023-06-14T12:31:12;100831.72;;;28.25;26.21
67109;BME280;54027;50.786;7.058;2023-06-14T12:33:38;100844.06;;;28.04;25.60
67109;BME280;54027;50.786;7.058;2023-06-14T12:36:05;100837.16;;;28.01;25.26
67109;BME280;54027;50.786;7.058;2023-06-14T12:38:32;100852.88;;;27.93;26.46
67109;BME280;54027;50.786;7.058;2023-06-14T12:40:57;100855.59;;;28.58;26.73
67109;BME280;54027;50.786;7.058;2023-06-14T12:43:23;100849.22;;;28.50;26.59
67109;BME280;54027;50.786;7.058;2023-06-14T12:45:48;100848.66;;;28.35;26.03
67109;BME280;54027;50.786;7.058;2023-06-14T12:48:14;100856.13;;;28.41;26.31
67109;BME280;54027;50.786;7.058;2023-06-14T12:50:40;100867.16;;;28.68;27.37
67109;BME280;54027;50.786;7.058;2023-06-14T12:53:05;100868.81;;;28.92;26.83
67109;BME280;54027;50.786;7.058;2023-06-14T12:55:32;100856.69;;;28.45;26.50
67109;BME280;54027;50.786;7.058;2023-06-14T12:57:57;100844.19;;;28.13;25.67
67109;BME280;54027;50.786;7.058;2023-06-14T13:00:23;100858.66;;;28.43;26.38
67109;BME280;54027;50.786;7.058;2023-06-14T13:02:48;100851.38;;;28.45;26.82
67109;BME280;54027;50.786;7.058;2023-06-14T13:05:14;100877.28;;;27.87;28.17